Time;durP1;ratioP1;P1;durP2;ratioP2;P2;SDS_P1;SDS_P2;PMS_P1;PMS_P2;Temp;Humidity;BMP_temperature;BMP_pressure;BME280_temperature;BME280_humidity;BME280_pressure;Samples;Min_cycle;Max_cycle;Signal;HPM_P1;HPM_P2
2021/01/06 00:01:24;;;;;;;0.10;0.00;;;1.90;99.90;;;;;;5031942;28;19921;-54
2021/01/06 00:03:51;;;;;;;0.10;0.00;;;1.90;99.90;;;;;;5028934;28;20045;-55
2021/01/06 00:06:24;;;;;;;1.13;0.08;;;1.90;99.90;;;;;;5029055;28;20041;-52
2021/01/06 00:08:51;;;;;;;1.35;0.10;;;1.80;99.90;;;;;;5030488;28;20049;-52
2021/01/06 00:11:18;;;;;;;0.05;0.00;;;1.80;99.90;;;;;;5027750;28;20120;-52
2021/01/06 00:13:45;;;;;;;0.80;0.00;;;1.80;99.90;;;;;;5019105;28;20057;-52
2021/01/06 00:16:12;;;;;;;0.10;0.10;;;1.80;99.90;;;;;;5025083;28;20053;-54
2021/01/06 00:18:39;;;;;;;0.10;0.00;;;1.80;99.90;;;;;;5013803;28;20078;-52
2021/01/06 00:21:06;;;;;;;0.00;0.00;;;1.80;99.90;;;;;;5029979;28;20053;-53
2021/01/06 00:23:33;;;;;;;0.10;0.00;;;1.80;99.90;;;;;;5028624;28;20068;-52
2021/01/06 00:26:01;;;;;;;0.13;0.00;;;1.80;99.90;;;;;;5026611;28;20079;-53
2021/01/06 00:28:27;;;;;;;0.10;0.00;;;1.80;99.90;;;;;;5021187;28;20049;-52
2021/01/06 00:30:58;;;;;;;0.40;0.00;;;1.80;99.90;;;;;;5030572;28;20422;-52
2021/01/06 00:33:31;;;;;;;0.10;0.00;;;1.80;99.90;;;;;;5029830;28;20050;-52
2021/01/06 00:36:00;;;;;;;0.10;0.00;;;1.80;99.90;;;;;;5031862;28;20049;-54
2021/01/06 00:38:29;;;;;;;0.40;0.00;;;1.80;99.90;;;;;;5028281;28;20053;-53
2021/01/06 00:40:56;;;;;;;0.00;0.00;;;1.80;99.90;;;;;;5023169;28;20387;-54
2021/01/06 00:43:23;;;;;;;0.10;0.00;;;1.80;99.90;;;;;;5021631;28;20054;-53
2021/01/06 00:45:50;;;;;;;0.00;0.00;;;1.80;99.90;;;;;;5020137;28;20041;-55
2021/01/06 00:48:17;;;;;;;0.00;0.00;;;1.80;99.90;;;;;;5033091;28;20053;-55
2021/01/06 00:50:44;;;;;;;0.20;0.00;;;1.80;99.90;;;;;;5029893;28;20049;-52
2021/01/06 00:53:17;;;;;;;1.10;0.00;;;1.80;99.90;;;;;;5022885;28;20096;-53
2021/01/06 00:55:44;;;;;;;0.00;0.00;;;1.70;99.90;;;;;;5026371;28;20061;-53
2021/01/06 00:58:12;;;;;;;0.10;0.10;;;1.80;99.90;;;;;;5016328;28;20060;-54
2021/01/06 01:00:38;;;;;;;0.00;0.00;;;1.80;99.90;;;;;;5030922;28;20398;-52
2021/01/06 01:03:05;;;;;;;0.00;0.00;;;1.80;99.90;;;;;;5023464;28;20049;-53
2021/01/06 01:05:34;;;;;;;0.00;0.00;;;1.80;99.90;;;;;;5017141;28;20061;-52
2021/01/06 01:08:01;;;;;;;0.00;0.00;;;1.80;99.90;;;;;;5026484;28;20055;-53
2021/01/06 01:10:39;;;;;;;0.00;0.00;;;1.80;99.90;;;;;;5021129;28;20057;-53
2021/01/06 01:13:12;;;;;;;0.20;0.10;;;1.80;99.90;;;;;;5024178;28;20049;-52
2021/01/06 01:15:40;;;;;;;0.20;0.07;;;1.80;99.90;;;;;;5033349;28;20045;-55
2021/01/06 01:18:14;;;;;;;0.50;0.00;;;1.80;99.90;;;;;;5035023;28;20402;-52
2021/01/06 01:20:46;;;;;;;0.08;0.00;;;1.80;99.90;;;;;;5033677;28;20501;-55
2021/01/06 01:23:14;;;;;;;0.00;0.00;;;1.90;99.90;;;;;;5033612;28;20076;-53
2021/01/06 01:25:41;;;;;;;0.00;0.00;;;1.80;99.90;;;;;;5033620;28;20060;-55
2021/01/06 01:28:08;;;;;;;0.10;0.00;;;1.80;99.90;;;;;;5035067;28;20090;-52
2021/01/06 01:30:34;;;;;;;0.10;0.00;;;1.80;99.90;;;;;;5033952;28;20054;-53
2021/01/06 01:33:01;;;;;;;0.00;0.00;;;1.80;99.90;;;;;;5034449;28;20410;-52
2021/01/06 01:35:30;;;;;;;0.00;0.00;;;1.80;99.90;;;;;;5034764;28;20057;-53
2021/01/06 01:38:02;;;;;;;0.00;0.00;;;1.80;99.90;;;;;;5033897;28;20056;-52
2021/01/06 01:40:38;;;;;;;0.00;0.00;;;1.80;99.90;;;;;;5028091;28;20056;-53
2021/01/06 01:43:19;;;;;;;0.00;0.00;;;1.80;99.90;;;;;;5033740;28;20041;-54
2021/01/06 01:45:46;;;;;;;0.00;0.00;;;1.80;99.90;;;;;;5031288;28;20136;-52
2021/01/06 01:48:33;;;;;;;0.00;0.00;;;1.90;99.90;;;;;;5036110;28;20046;-52
2021/01/06 01:51:30;;;;;;;0.20;0.10;;;1.90;99.90;;;;;;5029068;28;20050;-54
2021/01/06 01:54:04;;;;;;;0.17;0.10;;;1.80;99.90;;;;;;5021827;28;20048;-52
2021/01/06 01:57:08;;;;;;;0.93;0.00;;;1.90;99.90;;;;;;5024113;28;20054;-52
2021/01/06 01:59:45;;;;;;;0.00;0.00;;;1.80;99.90;;;;;;5030373;28;20453;-55
2021/01/06 02:02:30;;;;;;;0.00;0.00;;;1.90;99.90;;;;;;5016836;28;20045;-52
2021/01/06 02:05:04;;;;;;;0.00;0.00;;;1.90;99.90;;;;;;5029954;28;20387;-53
2021/01/06 02:07:36;;;;;;;0.10;0.00;;;1.90;99.90;;;;;;5025442;28;20042;-52
2021/01/06 02:10:17;;;;;;;0.10;0.00;;;1.80;99.90;;;;;;5020639;28;20049;-52
2021/01/06 02:13:17;;;;;;;0.10;0.00;;;1.90;99.90;;;;;;5030855;28;20050;-53
2021/01/06 02:16:08;;;;;;;0.10;0.00;;;1.90;99.90;;;;;;5026438;28;20060;-52
2021/01/06 02:18:35;;;;;;;0.57;0.00;;;1.90;99.90;;;;;;5031530;28;20419;-53
2021/01/06 02:21:13;;;;;;;0.10;0.00;;;1.90;99.90;;;;;;5031613;28;20061;-52
2021/01/06 02:23:42;;;;;;;0.20;0.10;;;1.90;99.90;;;;;;5016711;28;20054;-52
2021/01/06 02:26:10;;;;;;;0.30;0.20;;;1.90;99.90;;;;;;5030928;28;20049;-52
2021/01/06 02:28:36;;;;;;;0.93;0.20;;;1.90;99.90;;;;;;5032648;28;20045;-53
2021/01/06 02:31:04;;;;;;;0.50;0.10;;;1.90;99.90;;;;;;5032281;28;20054;-53
2021/01/06 02:33:32;;;;;;;0.10;0.10;;;2.00;99.90;;;;;;5033032;28;20096;-52
2021/01/06 02:35:59;;;;;;;0.10;0.00;;;1.90;99.90;;;;;;5033973;28;20049;-54
2021/01/06 02:38:26;;;;;;;0.03;0.00;;;2.00;99.90;;;;;;5031746;28;20046;-51
2021/01/06 02:40:54;;;;;;;0.10;0.00;;;1.90;99.90;;;;;;5032414;28;20049;-55
2021/01/06 02:43:22;;;;;;;0.00;0.00;;;1.90;99.90;;;;;;5032394;28;20479;-54
2021/01/06 02:45:49;;;;;;;0.10;0.00;;;1.90;99.90;;;;;;5030887;28;20402;-54
2021/01/06 02:48:17;;;;;;;0.10;0.00;;;1.90;99.90;;;;;;5033720;28;20135;-52
2021/01/06 02:50:47;;;;;;;0.10;0.10;;;1.90;99.90;;;;;;5033780;28;20419;-52
2021/01/06 02:53:21;;;;;;;0.00;0.00;;;1.90;99.90;;;;;;5025185;28;20491;-52
2021/01/06 02:55:48;;;;;;;;;;;1.90;99.90;;;;;;5031084;28;20057;-52
2021/01/06 02:58:21;;;;;;;0.03;0.00;;;1.80;99.90;;;;;;5032723;28;19968;-52
2021/01/06 03:00:53;;;;;;;0.08;0.05;;;1.80;99.90;;;;;;5032285;28;20045;-53
2021/01/06 03:03:25;;;;;;;0.22;0.10;;;1.90;99.90;;;;;;5030745;28;20054;-54
2021/01/06 03:06:06;;;;;;;2.67;0.20;;;1.80;99.90;;;;;;5025350;28;20056;-53
2021/01/06 03:08:35;;;;;;;0.52;0.13;;;1.90;99.90;;;;;;5029790;28;20496;-52
2021/01/06 03:11:03;;;;;;;0.10;0.10;;;1.90;99.90;;;;;;5029554;28;20046;-54
2021/01/06 03:13:30;;;;;;;0.15;0.10;;;1.90;99.90;;;;;;5030999;28;20059;-52
2021/01/06 03:15:57;;;;;;;1.05;0.10;;;1.90;99.90;;;;;;5032515;28;20045;-55
2021/01/06 03:18:24;;;;;;;0.30;0.10;;;1.90;99.90;;;;;;5027130;28;20466;-54
2021/01/06 03:20:56;;;;;;;0.10;0.10;;;1.90;99.90;;;;;;5030951;28;20049;-53
2021/01/06 03:23:29;;;;;;;0.10;0.10;;;1.90;99.90;;;;;;5027328;28;20054;-54
2021/01/06 03:25:57;;;;;;;;;;;1.90;99.90;;;;;;5030871;28;20053;-52
2021/01/06 03:28:27;;;;;;;0.10;0.10;;;1.90;99.90;;;;;;5031964;28;19921;-52
2021/01/06 03:30:57;;;;;;;0.20;0.10;;;1.90;99.90;;;;;;5027706;28;20057;-53
2021/01/06 03:33:39;;;;;;;0.20;0.10;;;1.90;99.90;;;;;;5031331;28;20068;-55
2021/01/06 03:36:12;;;;;;;0.10;0.10;;;1.90;99.90;;;;;;5031837;28;20056;-52
2021/01/06 03:38:48;;;;;;;0.10;0.10;;;1.90;99.90;;;;;;5028664;28;20064;-52
2021/01/06 03:41:16;;;;;;;0.15;0.10;;;1.80;99.90;;;;;;5031571;28;20069;-52
2021/01/06 03:43:48;;;;;;;0.10;0.10;;;1.90;99.90;;;;;;5029515;28;20490;-53
2021/01/06 03:46:32;;;;;;;1.23;0.10;;;1.90;99.90;;;;;;5020305;28;20061;-52
2021/01/06 03:49:24;;;;;;;0.95;0.20;;;1.80;99.90;;;;;;5017739;28;20050;-55
2021/01/06 03:52:08;;;;;;;0.20;0.20;;;1.80;99.90;;;;;;5027783;28;20076;-53
2021/01/06 03:55:07;;;;;;;0.20;0.10;;;1.90;99.90;;;;;;5021006;28;20064;-52
2021/01/06 03:57:34;;;;;;;0.95;0.20;;;1.90;99.90;;;;;;5008061;28;20045;-52
2021/01/06 04:00:04;;;;;;;0.20;0.20;;;1.90;99.90;;;;;;5027407;28;20056;-53
2021/01/06 04:02:42;;;;;;;0.20;0.20;;;1.90;99.90;;;;;;5023137;28;20057;-52
2021/01/06 04:05:18;;;;;;;0.20;0.20;;;1.90;99.90;;;;;;5025525;28;20096;-52
2021/01/06 04:07:56;;;;;;;0.20;0.20;;;1.90;99.90;;;;;;5021888;28;20057;-54
2021/01/06 04:10:31;;;;;;;0.20;0.20;;;1.80;99.90;;;;;;5020489;28;20050;-52
2021/01/06 04:12:58;;;;;;;0.13;0.13;;;1.80;99.90;;;;;;5026997;28;20053;-55
2021/01/06 04:15:25;;;;;;;0.98;0.50;;;1.90;99.90;;;;;;5027911;28;20400;-52
2021/01/06 04:17:54;;;;;;;0.20;0.10;;;1.80;99.90;;;;;;5031474;28;20490;-55
2021/01/06 04:20:34;;;;;;;0.15;0.15;;;1.90;99.90;;;;;;5031767;28;20057;-54
2021/01/06 04:23:05;;;;;;;0.20;0.20;;;1.90;99.90;;;;;;5031379;28;20056;-53
2021/01/06 04:25:43;;;;;;;0.10;0.10;;;1.80;99.90;;;;;;5031258;28;20064;-54
2021/01/06 04:28:22;;;;;;;0.20;0.20;;;1.90;99.90;;;;;;5031461;28;20053;-52
2021/01/06 04:30:55;;;;;;;0.20;0.10;;;1.90;99.90;;;;;;5025076;28;20545;-55
2021/01/06 04:33:25;;;;;;;0.10;0.10;;;1.90;99.90;;;;;;5019039;28;20406;-54
2021/01/06 04:35:54;;;;;;;0.25;0.20;;;1.90;99.90;;;;;;5030202;28;20073;-52
2021/01/06 04:38:24;;;;;;;0.30;0.30;;;1.90;99.90;;;;;;5029986;28;20419;-52
2021/01/06 04:40:55;;;;;;;0.40;0.25;;;1.80;99.90;;;;;;5016716;28;20070;-52
2021/01/06 04:43:37;;;;;;;2.83;0.20;;;1.80;99.90;;;;;;5030037;28;20503;-52
2021/01/06 04:46:32;;;;;;;0.65;0.20;;;1.90;99.90;;;;;;5029263;28;20046;-52
2021/01/06 04:49:43;;;;;;;0.20;0.20;;;1.80;99.90;;;;;;5032804;28;20056;-52
2021/01/06 04:52:34;;;;;;;0.30;0.20;;;1.80;99.90;;;;;;5006758;28;20399;-52
2021/01/06 04:55:38;;;;;;;0.68;0.30;;;1.80;99.90;;;;;;5030062;28;20052;-53
2021/01/06 04:58:18;;;;;;;0.20;0.20;;;1.80;99.90;;;;;;5018949;28;20053;-52
2021/01/06 05:01:09;;;;;;;0.20;0.20;;;1.70;99.90;;;;;;5030664;28;20060;-53
2021/01/06 05:03:57;;;;;;;0.65;0.30;;;1.80;99.90;;;;;;5028052;28;21753;-52
2021/01/06 05:06:53;;;;;;;0.35;0.30;;;1.80;99.90;;;;;;5034733;28;20045;-52
2021/01/06 05:09:24;;;;;;;0.75;0.35;;;1.70;99.90;;;;;;5024708;28;20042;-53
2021/01/06 05:12:23;;;;;;;0.40;0.40;;;1.70;99.90;;;;;;5019568;28;20061;-54
2021/01/06 05:15:01;;;;;;;1.55;0.38;;;1.70;99.90;;;;;;5021174;28;20050;-52
2021/01/06 05:17:28;;;;;;;0.40;0.30;;;1.70;99.90;;;;;;5030757;28;20068;-53
2021/01/06 05:19:54;;;;;;;0.35;0.35;;;1.70;99.90;;;;;;5027430;28;20050;-52
2021/01/06 05:22:21;;;;;;;0.40;0.30;;;1.60;99.90;;;;;;5033356;28;20045;-52
2021/01/06 05:24:50;;;;;;;0.30;0.30;;;1.60;99.90;;;;;;5034007;28;20054;-53
2021/01/06 05:27:26;;;;;;;0.20;0.20;;;1.70;99.90;;;;;;5033957;28;20057;-54
2021/01/06 05:29:57;;;;;;;0.30;0.30;;;1.70;99.90;;;;;;5028775;28;20060;-55
2021/01/06 05:32:29;;;;;;;0.20;0.20;;;1.70;99.90;;;;;;5033852;28;20490;-54
2021/01/06 05:35:03;;;;;;;1.00;0.20;;;1.60;99.90;;;;;;5032722;28;20375;-52
2021/01/06 05:37:30;;;;;;;0.20;0.15;;;1.70;99.90;;;;;;5034437;28;20041;-52
2021/01/06 05:40:04;;;;;;;0.20;0.20;;;1.70;99.90;;;;;;5031753;28;20129;-52
2021/01/06 05:42:34;;;;;;;;;;;1.70;99.90;;;;;;5031922;28;20057;-54
2021/01/06 05:45:04;;;;;;;0.20;0.20;;;1.70;99.90;;;;;;5034857;28;20597;-52
2021/01/06 05:47:49;;;;;;;0.68;0.20;;;1.70;99.90;;;;;;5033500;28;20058;-52
2021/01/06 05:50:50;;;;;;;0.47;0.10;;;1.70;99.90;;;;;;5017915;28;20046;-54
2021/01/06 05:53:37;;;;;;;0.73;0.20;;;1.70;99.90;;;;;;5020620;28;20053;-53
2021/01/06 05:56:20;;;;;;;0.20;0.15;;;1.70;99.90;;;;;;5030446;28;20049;-54
2021/01/06 05:58:54;;;;;;;;;;;1.70;99.90;;;;;;5023503;28;20072;-54
2021/01/06 06:01:35;;;;;;;0.10;0.10;;;1.80;99.90;;;;;;5032745;28;19932;-52
2021/01/06 06:04:32;;;;;;;0.43;0.10;;;1.80;99.90;;;;;;5033578;28;20049;-52
2021/01/06 06:07:07;;;;;;;0.10;0.10;;;1.80;99.90;;;;;;5024661;28;20368;-51
2021/01/06 06:09:52;;;;;;;0.40;0.20;;;1.80;99.90;;;;;;5028695;28;20053;-52
2021/01/06 06:12:42;;;;;;;0.10;0.10;;;1.80;99.90;;;;;;5022032;28;20068;-55
2021/01/06 06:15:17;;;;;;;0.10;0.10;;;1.80;99.90;;;;;;5019720;28;20502;-53
2021/01/06 06:17:59;;;;;;;0.20;0.10;;;1.80;99.90;;;;;;5031349;28;20042;-51
2021/01/06 06:21:01;;;;;;;4.28;0.28;;;1.80;99.90;;;;;;5018200;28;20049;-52
2021/01/06 06:23:48;;;;;;;0.20;0.08;;;1.80;99.90;;;;;;5029678;28;20069;-53
2021/01/06 06:26:27;;;;;;;2.45;0.10;;;1.80;99.90;;;;;;5031039;28;20053;-52
2021/01/06 06:29:09;;;;;;;0.15;0.10;;;1.80;99.90;;;;;;5018673;28;20057;-52
2021/01/06 06:31:37;;;;;;;0.20;0.10;;;1.80;99.90;;;;;;5024914;28;20420;-52
2021/01/06 06:34:09;;;;;;;0.10;0.10;;;1.90;99.90;;;;;;5024357;28;20049;-52
2021/01/06 06:36:40;;;;;;;0.93;0.00;;;1.90;99.90;;;;;;5024995;28;20460;-52
2021/01/06 06:39:47;;;;;;;0.10;0.00;;;1.90;99.90;;;;;;5029427;28;20499;-53
2021/01/06 06:42:25;;;;;;;0.10;0.10;;;1.90;99.90;;;;;;5017628;28;20045;-52
2021/01/06 06:44:59;;;;;;;1.50;0.10;;;1.90;99.90;;;;;;5021970;28;20446;-52
2021/01/06 06:47:50;;;;;;;0.65;0.10;;;1.90;99.90;;;;;;5026269;28;20053;-53
2021/01/06 06:50:45;;;;;;;0.10;0.10;;;1.90;99.90;;;;;;5030500;28;20050;-52
2021/01/06 06:53:23;;;;;;;0.10;0.10;;;1.90;99.90;;;;;;5021585;28;20052;-51
2021/01/06 06:56:01;;;;;;;0.10;0.10;;;1.90;99.90;;;;;;5028335;28;20057;-53
2021/01/06 06:59:05;;;;;;;1.17;0.10;;;1.80;99.90;;;;;;5030209;28;20045;-52
2021/01/06 07:01:38;;;;;;;0.10;0.10;;;1.90;99.90;;;;;;5024762;28;20046;-52
2021/01/06 07:04:17;;;;;;;0.10;0.03;;;1.90;99.90;;;;;;5020265;28;20057;-52
2021/01/06 07:06:54;;;;;;;0.10;0.00;;;2.00;99.90;;;;;;5021670;28;20045;-52
2021/01/06 07:09:30;;;;;;;0.15;0.10;;;2.00;99.90;;;;;;5031507;28;20049;-55
2021/01/06 07:12:09;;;;;;;0.50;0.08;;;2.00;99.90;;;;;;5018194;28;20422;-54
2021/01/06 07:14:54;;;;;;;0.13;0.10;;;2.00;99.90;;;;;;5030283;28;20482;-54
2021/01/06 07:17:41;;;;;;;1.85;0.00;;;2.00;99.90;;;;;;5028873;28;20053;-52
2021/01/06 07:20:11;;;;;;;0.10;0.08;;;2.00;99.90;;;;;;5028355;28;20509;-53
2021/01/06 07:22:40;;;;;;;0.00;0.00;;;2.10;99.90;;;;;;5029586;28;20046;-52
2021/01/06 07:25:18;;;;;;;0.00;0.00;;;2.00;99.90;;;;;;5031559;28;20501;-52
2021/01/06 07:27:51;;;;;;;0.10;0.10;;;2.10;99.90;;;;;;5030452;28;20057;-53
2021/01/06 07:30:36;;;;;;;0.20;0.20;;;2.10;99.90;;;;;;5031146;28;20052;-51
2021/01/06 07:33:34;;;;;;;1.00;0.10;;;2.00;99.90;;;;;;5015041;28;20069;-52
2021/01/06 07:36:18;;;;;;;0.57;0.10;;;2.00;99.90;;;;;;5030264;28;20049;-52
2021/01/06 07:38:46;;;;;;;0.73;0.20;;;2.00;99.90;;;;;;5031391;28;20090;-52
2021/01/06 07:41:15;;;;;;;2.40;0.30;;;2.00;99.90;;;;;;5020028;28;20054;-55
2021/01/06 07:44:00;;;;;;;0.40;0.20;;;2.00;99.90;;;;;;5029640;28;20045;-54
2021/01/06 07:46:33;;;;;;;0.40;0.30;;;2.10;99.90;;;;;;5024680;28;20388;-52
2021/01/06 07:49:38;;;;;;;0.45;0.38;;;2.10;99.90;;;;;;5026166;28;20068;-52
2021/01/06 07:52:46;;;;;;;1.05;0.10;;;2.10;99.90;;;;;;5020834;28;20045;-53
2021/01/06 07:55:28;;;;;;;0.00;0.00;;;2.10;99.90;;;;;;5022860;28;20372;-52
2021/01/06 07:58:05;;;;;;;0.30;0.20;;;2.10;99.90;;;;;;5021090;28;20041;-55
2021/01/06 08:01:02;;;;;;;0.13;0.13;;;2.10;99.90;;;;;;5025715;28;20046;-54
2021/01/06 08:03:44;;;;;;;2.60;0.20;;;2.10;99.90;;;;;;5019950;28;20057;-54
2021/01/06 08:06:11;;;;;;;0.10;0.10;;;2.10;99.90;;;;;;5023044;28;20089;-55
2021/01/06 08:08:50;;;;;;;0.20;0.10;;;2.10;99.90;;;;;;5020089;28;20042;-52
2021/01/06 08:11:20;;;;;;;0.20;0.10;;;2.10;99.90;;;;;;5031309;28;20054;-53
2021/01/06 08:13:52;;;;;;;0.20;0.13;;;2.10;99.90;;;;;;5027704;28;20479;-53
2021/01/06 08:16:30;;;;;;;0.20;0.08;;;2.10;99.90;;;;;;5014101;28;20049;-52
2021/01/06 08:19:25;;;;;;;1.17;0.30;;;2.10;99.90;;;;;;5030243;28;20499;-53
2021/01/06 08:22:10;;;;;;;0.30;0.20;;;2.20;99.90;;;;;;5027054;28;20037;-55
2021/01/06 08:24:46;;;;;;;0.50;0.30;;;2.30;99.90;;;;;;5016576;28;20057;-52
2021/01/06 08:27:16;;;;;;;1.67;0.30;;;2.40;99.90;;;;;;5029999;28;20054;-52
2021/01/06 08:29:44;;;;;;;0.70;0.50;;;2.40;99.90;;;;;;5022538;28;20396;-53
2021/01/06 08:32:16;;;;;;;0.20;0.20;;;2.50;99.90;;;;;;5031411;28;20048;-53
2021/01/06 08:34:56;;;;;;;0.80;0.40;;;2.40;99.90;;;;;;5030170;28;20053;-52
2021/01/06 08:37:25;;;;;;;0.75;0.20;;;2.50;99.90;;;;;;5027971;28;20486;-52
2021/01/06 08:39:54;;;;;;;0.30;0.30;;;2.50;99.90;;;;;;5027167;28;20046;-53
2021/01/06 08:42:28;;;;;;;1.42;0.20;;;2.50;99.90;;;;;;5023802;28;20041;-54
2021/01/06 08:44:54;;;;;;;0.40;0.10;;;2.50;99.90;;;;;;5032523;28;20490;-52
2021/01/06 08:47:33;;;;;;;0.52;0.10;;;2.50;99.90;;;;;;5025514;28;20426;-52
2021/01/06 08:50:34;;;;;;;0.45;0.30;;;2.60;99.90;;;;;;5027829;28;20053;-56
2021/01/06 08:53:03;;;;;;;0.35;0.17;;;2.60;99.90;;;;;;5025073;28;20050;-52
2021/01/06 08:55:40;;;;;;;8.25;0.50;;;2.70;99.90;;;;;;5017148;28;20438;-55
2021/01/06 08:58:07;;;;;;;0.77;0.30;;;2.70;99.90;;;;;;5020961;28;20054;-55
2021/01/06 09:00:42;;;;;;;0.77;0.20;;;2.70;99.90;;;;;;5025811;28;20042;-56
2021/01/06 09:03:37;;;;;;;1.75;0.15;;;2.70;99.90;;;;;;5014255;28;20054;-54
2021/01/06 09:06:10;;;;;;;0.20;0.20;;;2.70;99.90;;;;;;5030430;28;20052;-55
2021/01/06 09:08:37;;;;;;;0.60;0.40;;;2.70;99.90;;;;;;5029244;28;20076;-55
2021/01/06 09:11:15;;;;;;;0.30;0.20;;;2.80;99.90;;;;;;5028813;28;20050;-55
2021/01/06 09:14:10;;;;;;;0.47;0.30;;;2.80;99.90;;;;;;5029446;28;20076;-55
2021/01/06 09:16:56;;;;;;;;;;;2.80;99.90;;;;;;5015799;28;20046;-55
2021/01/06 09:19:45;;;;;;;0.20;0.10;;;2.80;99.90;;;;;;5027225;28;19926;-56
2021/01/06 09:22:14;;;;;;;0.30;0.20;;;2.80;99.90;;;;;;5023533;28;20048;-56
2021/01/06 09:24:42;;;;;;;1.30;0.30;;;2.80;99.90;;;;;;5018527;28;20045;-55
2021/01/06 09:27:24;;;;;;;1.10;0.20;;;2.80;99.90;;;;;;5027368;28;20049;-56
2021/01/06 09:29:53;;;;;;;0.45;0.20;;;2.90;99.90;;;;;;5023405;28;20136;-56
2021/01/06 09:32:26;;;;;;;0.68;0.30;;;2.90;99.90;;;;;;5019641;28;20049;-55
2021/01/06 09:34:59;;;;;;;0.88;0.60;;;2.90;99.90;;;;;;5024332;28;20051;-56
2021/01/06 09:37:32;;;;;;;2.88;0.40;;;2.90;99.90;;;;;;5033954;28;20041;-55
2021/01/06 09:40:25;;;;;;;3.03;1.50;;;3.00;99.90;;;;;;5032024;28;20045;-55
2021/01/06 09:43:15;;;;;;;1.00;0.70;;;2.90;99.90;;;;;;5023461;28;20049;-56
2021/01/06 09:45:42;;;;;;;0.90;0.70;;;3.00;99.90;;;;;;5021393;28;20057;-54
2021/01/06 09:48:12;;;;;;;0.45;0.40;;;3.00;99.90;;;;;;5029582;28;20053;-56
2021/01/06 09:50:47;;;;;;;0.98;0.25;;;3.10;99.90;;;;;;5027461;28;20057;-53
2021/01/06 09:53:18;;;;;;;1.23;0.20;;;3.20;99.90;;;;;;5031721;28;20081;-56
2021/01/06 09:55:48;;;;;;;1.35;0.60;;;3.20;99.90;;;;;;5031732;28;20049;-56
2021/01/06 09:58:37;;;;;;;0.63;0.40;;;3.30;99.90;;;;;;5034161;28;20049;-56
2021/01/06 10:01:14;;;;;;;0.60;0.20;;;3.40;99.90;;;;;;5033375;28;20050;-56
2021/01/06 10:03:43;;;;;;;0.20;0.20;;;3.40;99.90;;;;;;5032512;28;20503;-55
2021/01/06 10:06:18;;;;;;;1.63;0.20;;;3.40;99.90;;;;;;5031648;28;20049;-56
2021/01/06 10:08:59;;;;;;;0.30;0.20;;;3.40;99.90;;;;;;5032902;28;20418;-56
2021/01/06 10:11:27;;;;;;;0.32;0.30;;;3.40;99.90;;;;;;5022363;28;20072;-56
2021/01/06 10:14:21;;;;;;;0.60;0.40;;;3.30;99.90;;;;;;5027114;28;20495;-56
2021/01/06 10:17:08;;;;;;;0.60;0.40;;;3.30;99.90;;;;;;5027532;28;20056;-56
2021/01/06 10:19:43;;;;;;;0.98;0.60;;;3.30;99.90;;;;;;5025793;28;20065;-56
2021/01/06 10:22:25;;;;;;;2.03;0.80;;;3.30;99.90;;;;;;5026297;28;20049;-56
2021/01/06 10:25:04;;;;;;;0.13;0.10;;;3.30;99.90;;;;;;5021021;28;20463;-54
2021/01/06 10:27:38;;;;;;;0.20;0.10;;;3.10;99.90;;;;;;5029260;28;20455;-55
2021/01/06 10:30:13;;;;;;;0.63;0.13;;;2.90;99.90;;;;;;5027443;28;20052;-56
2021/01/06 10:32:50;;;;;;;0.65;0.20;;;2.50;99.90;;;;;;5031543;28;20041;-52
2021/01/06 10:35:36;;;;;;;0.10;0.10;;;2.40;99.90;;;;;;5028111;28;20069;-55
2021/01/06 10:38:21;;;;;;;0.20;0.10;;;2.50;99.90;;;;;;5038998;28;20049;-54
2021/01/06 10:40:48;;;;;;;0.10;0.10;;;2.40;99.90;;;;;;5027762;28;20053;-52
2021/01/06 10:43:33;;;;;;;0.30;0.20;;;2.50;99.90;;;;;;5028857;28;20058;-52
2021/01/06 10:46:00;;;;;;;0.32;0.20;;;2.60;99.90;;;;;;5032997;28;20064;-51
2021/01/06 10:48:43;;;;;;;0.30;0.28;;;2.60;99.90;;;;;;5030411;28;20052;-52
2021/01/06 10:51:10;;;;;;;1.08;0.50;;;2.60;99.90;;;;;;5029488;28;20054;-52
2021/01/06 10:53:41;;;;;;;3.53;1.95;;;2.60;99.90;;;;;;5033006;28;20045;-53
2021/01/06 10:56:08;;;;;;;0.20;0.13;;;2.70;99.90;;;;;;5032075;28;20094;-55
2021/01/06 10:58:39;;;;;;;0.10;0.10;;;2.60;99.90;;;;;;5030860;28;20056;-53
2021/01/06 11:01:17;;;;;;;1.02;0.60;;;2.50;99.90;;;;;;5030729;28;20068;-52
2021/01/06 11:04:13;;;;;;;0.20;0.20;;;2.60;99.90;;;;;;5027606;28;20392;-53
2021/01/06 11:06:54;;;;;;;0.20;0.20;;;2.60;99.90;;;;;;5025753;28;20041;-55
2021/01/06 11:10:06;;;;;;;0.40;0.30;;;2.50;99.90;;;;;;5025525;28;20041;-55
2021/01/06 11:12:42;;;;;;;20.25;3.05;;;2.50;99.90;;;;;;4983095;28;20067;-54
2021/01/06 11:15:34;;;;;;;4.30;1.50;;;2.60;99.90;;;;;;4986734;28;20511;-55
2021/01/06 11:18:03;;;;;;;0.50;0.35;;;2.70;99.90;;;;;;4988258;28;20157;-54
2021/01/06 11:20:35;;;;;;;0.82;0.60;;;2.70;99.90;;;;;;4990203;28;20054;-53
2021/01/06 11:23:20;;;;;;;1.58;0.30;;;2.80;99.90;;;;;;4988971;28;20426;-53
2021/01/06 11:25:49;;;;;;;1.05;0.10;;;2.80;99.90;;;;;;4985490;28;20054;-52
2021/01/06 11:28:40;;;;;;;1.50;0.30;;;2.90;99.90;;;;;;4989052;28;20050;-53
2021/01/06 11:31:31;;;;;;;0.57;0.20;;;2.90;99.90;;;;;;4977092;28;20097;-52
2021/01/06 11:34:19;;;;;;;1.90;1.42;;;2.80;99.90;;;;;;4986305;28;20109;-51
2021/01/06 11:36:58;;;;;;;1.00;0.75;;;2.90;99.90;;;;;;4979037;28;20056;-55
2021/01/06 11:39:28;;;;;;;0.95;0.50;;;2.90;99.90;;;;;;4989085;28;20432;-54
2021/01/06 11:42:17;;;;;;;1.75;0.68;;;3.00;99.90;;;;;;4989470;28;20058;-52
2021/01/06 11:45:08;;;;;;;1.85;0.85;;;3.20;99.90;;;;;;5026509;28;20064;-53
2021/01/06 11:47:53;;;;;;;4.00;1.98;;;3.20;99.90;;;;;;5032018;28;20124;-52
2021/01/06 11:50:19;;;;;;;1.73;1.00;;;3.30;99.90;;;;;;5028420;28;20045;-56
2021/01/06 11:52:49;;;;;;;1.75;0.70;;;3.30;99.90;;;;;;5029601;28;20041;-56
2021/01/06 11:55:33;;;;;;;1.23;0.40;;;3.30;99.90;;;;;;5031132;28;20042;-55
2021/01/06 11:58:19;;;;;;;2.72;0.60;;;3.30;99.90;;;;;;5028826;28;20041;-53
2021/01/06 12:01:03;;;;;;;0.45;0.30;;;3.40;99.90;;;;;;5032874;28;20471;-55
2021/01/06 12:04:03;;;;;;;1.25;0.80;;;3.40;99.90;;;;;;5026359;28;20065;-56
2021/01/06 12:07:06;;;;;;;0.57;0.50;;;3.50;99.90;;;;;;5024721;28;20057;-55
2021/01/06 12:09:36;;;;;;;4.10;1.98;;;3.50;99.90;;;;;;5016117;28;20117;-56
2021/01/06 12:12:24;;;;;;;4.72;2.30;;;3.50;99.90;;;;;;5025847;28;20047;-56
2021/01/06 12:15:13;;;;;;;1.42;1.10;;;3.50;99.90;;;;;;5023030;28;20050;-55
2021/01/06 12:17:50;;;;;;;2.78;1.65;;;3.50;99.90;;;;;;5004169;28;20057;-55
2021/01/06 12:20:24;;;;;;;7.35;4.35;;;3.60;99.90;;;;;;5027893;28;20075;-55
2021/01/06 12:23:15;;;;;;;4.03;2.42;;;3.60;99.90;;;;;;5030664;28;20057;-55
2021/01/06 12:25:57;;;;;;;4.63;2.45;;;3.60;99.90;;;;;;5019110;28;20050;-55
2021/01/06 12:28:32;;;;;;;2.83;1.13;;;3.60;99.90;;;;;;5029244;28;20057;-55
2021/01/06 12:31:05;;;;;;;4.63;3.28;;;3.60;99.90;;;;;;5030714;28;20053;-52
2021/01/06 12:33:37;;;;;;;3.65;2.97;;;3.60;99.90;;;;;;5024995;28;20050;-55
2021/01/06 12:36:15;;;;;;;3.10;1.80;;;3.50;99.90;;;;;;5024858;28;20060;-55
2021/01/06 12:38:43;;;;;;;0.73;0.60;;;3.30;99.90;;;;;;5031202;28;20048;-55
2021/01/06 12:41:18;;;;;;;0.95;0.68;;;3.20;99.90;;;;;;5030189;28;20491;-55
2021/01/06 12:44:10;;;;;;;0.80;0.40;;;3.10;99.90;;;;;;5031499;28;20053;-54
2021/01/06 12:46:42;;;;;;;1.05;0.50;;;2.90;99.90;;;;;;5022176;28;20057;-55
2021/01/06 12:49:15;;;;;;;0.80;0.77;;;2.80;99.90;;;;;;5019574;28;20072;-53
2021/01/06 12:51:58;;;;;;;2.13;1.20;;;2.60;99.90;;;;;;5030773;28;20288;-54
2021/01/06 12:54:35;;;;;;;3.88;0.80;;;2.50;99.90;;;;;;5027313;28;20049;-54
2021/01/06 12:57:08;;;;;;;2.35;0.63;;;2.50;99.90;;;;;;5028345;28;20046;-52
2021/01/06 12:59:51;;;;;;;0.30;0.27;;;2.50;99.90;;;;;;5029965;28;20487;-54
2021/01/06 13:02:38;;;;;;;0.90;0.40;;;2.40;99.90;;;;;;5029936;28;20044;-53
2021/01/06 13:05:27;;;;;;;0.50;0.40;;;2.50;99.90;;;;;;5019223;28;20041;-53
2021/01/06 13:07:57;;;;;;;0.70;0.60;;;2.50;99.90;;;;;;5025967;28;20049;-52
2021/01/06 13:10:36;;;;;;;0.75;0.50;;;2.60;99.90;;;;;;5020578;28;20056;-55
2021/01/06 13:13:27;;;;;;;1.45;0.30;;;2.70;99.90;;;;;;5032947;28;20053;-52
2021/01/06 13:16:18;;;;;;;0.15;0.10;;;2.70;99.90;;;;;;5029954;28;20463;-53
2021/01/06 13:19:22;;;;;;;0.60;0.35;;;2.70;99.90;;;;;;5026689;28;20046;-52
2021/01/06 13:22:20;;;;;;;1.23;0.52;;;2.70;99.90;;;;;;5033256;28;20045;-54
2021/01/06 13:25:02;;;;;;;0.30;0.30;;;2.70;99.90;;;;;;5031432;28;20246;-52
2021/01/06 13:27:52;;;;;;;0.40;0.40;;;2.80;99.90;;;;;;5019735;28;20049;-52
2021/01/06 13:30:30;;;;;;;1.23;0.77;;;2.90;99.90;;;;;;5033100;28;20057;-52
2021/01/06 13:33:13;;;;;;;1.33;0.95;;;2.90;99.90;;;;;;5029628;28;20053;-53
2021/01/06 13:35:56;;;;;;;1.45;0.50;;;3.00;99.90;;;;;;5021739;28;20046;-53
2021/01/06 13:38:29;;;;;;;;;;;3.00;99.90;;;;;;5033831;28;20498;-53
2021/01/06 13:41:13;;;;;;;0.30;0.20;;;3.10;99.90;;;;;;5031518;28;19921;-52
2021/01/06 13:43:55;;;;;;;0.20;0.20;;;3.10;99.90;;;;;;5028156;28;20054;-52
2021/01/06 13:46:39;;;;;;;0.30;0.20;;;3.30;99.90;;;;;;5033426;28;20045;-52
2021/01/06 13:49:11;;;;;;;3.25;1.10;;;3.30;99.90;;;;;;5033694;28;20053;-54
2021/01/06 13:52:06;;;;;;;2.83;1.00;;;3.40;99.90;;;;;;5032134;28;20060;-52